createdAt,value
2023-03-02T00:02:02.257Z,-2.55
2023-03-02T00:04:35.924Z,-2.61
2023-03-02T00:07:09.675Z,-2.44
2023-03-02T00:09:39.367Z,-2.61
2023-03-02T00:12:11.386Z,-2.30
2023-03-02T00:14:40.150Z,-2.35
2023-03-02T00:17:10.511Z,-2.40
2023-03-02T00:19:39.504Z,-2.44
2023-03-02T00:22:11.040Z,-2.43
2023-03-02T00:24:42.205Z,-2.42
2023-03-02T00:27:10.974Z,-2.41
2023-03-02T00:29:39.753Z,-2.40
2023-03-02T00:32:09.052Z,-3.04
2023-03-02T00:34:38.008Z,-2.38
2023-03-02T00:37:08.142Z,-2.38
2023-03-02T00:39:36.920Z,-2.37
2023-03-02T00:42:05.842Z,-2.43
2023-03-02T00:44:34.629Z,-2.46
2023-03-02T00:47:03.623Z,-2.54
2023-03-02T00:49:32.471Z,-2.59
2023-03-02T00:52:03.183Z,-2.61
2023-03-02T00:54:33.664Z,-2.66
2023-03-02T00:57:02.788Z,-2.63
2023-03-02T00:59:31.600Z,-2.66
2023-03-02T01:02:18.747Z,-2.67
2023-03-02T01:04:48.175Z,-2.69
2023-03-02T01:07:19.582Z,-2.73
2023-03-02T01:09:49.727Z,-2.81
2023-03-02T01:12:18.661Z,-2.90
2023-03-02T01:14:49.246Z,-2.91
2023-03-02T01:17:18.105Z,-2.91
2023-03-02T01:19:46.891Z,-2.94
2023-03-02T01:22:15.687Z,-2.94
2023-03-02T01:24:44.489Z,-2.96
2023-03-02T01:27:14.625Z,-2.93
2023-03-02T01:29:43.422Z,-3.00
2023-03-02T01:32:12.270Z,-3.07
2023-03-02T01:34:42.202Z,-3.59
2023-03-02T01:37:10.929Z,-3.13
2023-03-02T01:39:39.880Z,-3.10
2023-03-02T01:42:08.605Z,-3.12
2023-03-02T01:44:41.459Z,-3.16
2023-03-02T01:47:17.332Z,-3.12
2023-03-02T01:49:58.192Z,-3.03
2023-03-02T01:52:31.886Z,-2.95
2023-03-02T01:55:08.048Z,-3.11
2023-03-02T01:57:43.511Z,-2.81
2023-03-02T02:00:19.505Z,-2.92
2023-03-02T02:02:48.901Z,-2.92
2023-03-02T02:05:23.595Z,-2.93
2023-03-02T02:07:52.727Z,-2.87
2023-03-02T02:10:21.927Z,-2.80
2023-03-02T02:12:50.670Z,-2.79
2023-03-02T02:15:20.921Z,-2.83
2023-03-02T02:17:51.157Z,-2.88
2023-03-02T02:20:29.509Z,-2.90
2023-03-02T02:23:18.718Z,-4.10
2023-03-02T02:26:18.353Z,-3.06
2023-03-02T02:28:57.886Z,-4.30
2023-03-02T02:31:37.360Z,-3.16
2023-03-02T02:34:15.298Z,-3.21
2023-03-02T02:36:49.526Z,-3.53
2023-03-02T02:39:28.923Z,-2.87
2023-03-02T02:42:04.791Z,-3.02
2023-03-02T02:44:34.194Z,-2.89
2023-03-02T02:47:03.155Z,-2.91
2023-03-02T02:49:36.285Z,-2.89
2023-03-02T02:52:07.913Z,-3.34
2023-03-02T02:54:38.629Z,-2.94
2023-03-02T02:57:12.372Z,-3.00
2023-03-02T02:59:45.539Z,-3.05
2023-03-02T03:02:21.729Z,-3.01
2023-03-02T03:04:51.124Z,-2.98
2023-03-02T03:07:26.423Z,-2.97
2023-03-02T03:10:02.511Z,-2.97
2023-03-02T03:12:34.851Z,-2.92
2023-03-02T03:15:05.428Z,-2.93
2023-03-02T03:17:34.324Z,-2.92
2023-03-02T03:20:08.639Z,-2.87
2023-03-02T03:22:40.583Z,-2.93
2023-03-02T03:25:15.625Z,-2.98
2023-03-02T03:27:48.868Z,-3.06
2023-03-02T03:30:19.021Z,-3.18
2023-03-02T03:32:48.689Z,-3.26
2023-03-02T03:35:18.974Z,-3.37
2023-03-02T03:37:49.640Z,-3.47
2023-03-02T03:40:20.222Z,-3.49
2023-03-02T03:42:51.536Z,-3.52
2023-03-02T03:45:20.731Z,-3.55
2023-03-02T03:47:49.570Z,-3.60
2023-03-02T03:50:18.816Z,-3.64
2023-03-02T03:52:48.125Z,-3.61
2023-03-02T03:55:28.371Z,-3.61
2023-03-02T03:58:01.186Z,-3.59
2023-03-02T04:00:30.092Z,-3.57
2023-03-02T04:03:05.325Z,-3.63
2023-03-02T04:05:35.119Z,-3.72
2023-03-02T04:08:05.472Z,-3.83
2023-03-02T04:10:35.403Z,-3.89
2023-03-02T04:13:06.585Z,-3.92
2023-03-02T04:15:37.155Z,-3.94
2023-03-02T04:18:06.624Z,-4.43
2023-03-02T04:20:37.089Z,-3.92
2023-03-02T04:23:06.902Z,-3.92
2023-03-02T04:25:35.640Z,-3.94
2023-03-02T04:28:17.666Z,-3.88
2023-03-02T04:30:47.570Z,-3.90
2023-03-02T04:33:16.384Z,-3.95
2023-03-02T04:35:45.465Z,-3.99
2023-03-02T04:38:14.338Z,-4.01
2023-03-02T04:40:43.149Z,-4.00
2023-03-02T04:43:11.875Z,-3.99
2023-03-02T04:45:42.512Z,-3.99
2023-03-02T04:48:11.334Z,-3.99
2023-03-02T04:50:40.997Z,-4.02
2023-03-02T04:53:11.597Z,-4.08
2023-03-02T04:55:41.061Z,-4.13
2023-03-02T04:58:10.552Z,-4.15
2023-03-02T05:00:39.431Z,-4.19
2023-03-02T05:03:09.508Z,-4.22
2023-03-02T05:05:38.492Z,-4.21
2023-03-02T05:08:07.335Z,-4.22
2023-03-02T05:10:36.055Z,-4.25
2023-03-02T05:13:05.851Z,-4.23
2023-03-02T05:15:37.301Z,-4.24
2023-03-02T05:18:07.294Z,-4.25
2023-03-02T05:20:37.550Z,-4.24
2023-03-02T05:23:08.767Z,-4.21
2023-03-02T05:25:39.226Z,-4.23
2023-03-02T05:28:08.200Z,-4.20
2023-03-02T05:30:37.793Z,-4.14
2023-03-02T05:33:06.794Z,-4.17
2023-03-02T05:35:37.217Z,-4.21
2023-03-02T05:38:06.699Z,-4.17
2023-03-02T05:40:35.964Z,-4.12
2023-03-02T05:43:05.185Z,-4.12
2023-03-02T05:45:36.257Z,-4.14
2023-03-02T05:48:05.684Z,-4.17
2023-03-02T05:50:34.466Z,-4.19
2023-03-02T05:53:04.797Z,-4.15
2023-03-02T05:55:37.294Z,-4.14
2023-03-02T05:58:07.404Z,-4.14
2023-03-02T06:00:36.160Z,-4.12
2023-03-02T06:03:05.099Z,-4.05
2023-03-02T06:05:34.257Z,-3.78
2023-03-02T06:08:04.950Z,-3.53
2023-03-02T06:10:34.291Z,-3.44
2023-03-02T06:13:03.101Z,-3.31
2023-03-02T06:15:32.059Z,-3.26
2023-03-02T06:18:00.862Z,-3.27
2023-03-02T06:20:29.693Z,-3.28
2023-03-02T06:22:58.537Z,-3.25
2023-03-02T06:25:28.997Z,-3.27
2023-03-02T06:27:57.711Z,-3.28
2023-03-02T06:30:27.915Z,-3.25
2023-03-02T06:32:56.698Z,-3.23
2023-03-02T06:35:29.015Z,-3.19
2023-03-02T06:37:57.977Z,-3.16
2023-03-02T06:40:28.096Z,-3.05
2023-03-02T06:42:57.006Z,-2.97
2023-03-02T06:45:25.822Z,-2.88
2023-03-02T06:47:54.761Z,-2.80
2023-03-02T06:50:23.838Z,-2.70
2023-03-02T06:52:52.587Z,-2.63
2023-03-02T06:55:21.374Z,-2.58
2023-03-02T06:57:51.594Z,-2.46
2023-03-02T07:00:25.958Z,-2.35
2023-03-02T07:02:55.301Z,-2.23
2023-03-02T07:05:25.379Z,-2.12
2023-03-02T07:07:56.732Z,-1.99
2023-03-02T07:10:25.498Z,-1.88
2023-03-02T07:12:56.096Z,-1.78
2023-03-02T07:15:25.465Z,-1.67
2023-03-02T07:17:54.424Z,-1.55
2023-03-02T07:20:23.580Z,-1.41
2023-03-02T07:22:52.331Z,-1.34
2023-03-02T07:25:21.200Z,-1.24
2023-03-02T07:27:50.354Z,-1.12
2023-03-02T07:30:21.897Z,-1.01
2023-03-02T07:32:50.819Z,-0.90
2023-03-02T07:35:20.008Z,-0.79
2023-03-02T07:37:48.800Z,-0.70
2023-03-02T07:40:17.647Z,-0.58
2023-03-02T07:42:46.348Z,-0.48
2023-03-02T07:45:20.285Z,-0.38
2023-03-02T07:47:50.403Z,-0.29
2023-03-02T07:50:19.490Z,-0.16
2023-03-02T07:52:48.306Z,0.02
2023-03-02T07:55:19.046Z,0.13
2023-03-02T07:57:47.853Z,0.31
2023-03-02T08:00:17.660Z,0.46
2023-03-02T08:02:46.563Z,0.49
2023-03-02T08:05:16.959Z,0.61
2023-03-02T08:07:47.183Z,0.78
2023-03-02T08:10:16.076Z,0.84
2023-03-02T08:12:45.577Z,0.88
2023-03-02T08:15:14.373Z,0.93
2023-03-02T08:17:43.044Z,1.05
2023-03-02T08:20:12.464Z,1.23
2023-03-02T08:22:42.337Z,1.42
2023-03-02T08:25:11.257Z,1.51
2023-03-02T08:27:40.282Z,1.56
2023-03-02T08:30:13.458Z,1.64
2023-03-02T08:32:42.480Z,1.68
2023-03-02T08:35:12.935Z,1.75
2023-03-02T08:37:43.018Z,1.86
2023-03-02T08:40:13.142Z,1.94
2023-03-02T08:42:41.874Z,2.00
2023-03-02T08:45:11.477Z,2.12
2023-03-02T08:47:40.417Z,2.18
2023-03-02T08:50:10.433Z,2.21
2023-03-02T08:52:39.259Z,2.27
2023-03-02T08:55:11.895Z,2.34
2023-03-02T08:57:41.651Z,2.37
2023-03-02T09:00:14.854Z,2.44
2023-03-02T09:02:43.343Z,2.35
2023-03-02T09:05:12.366Z,2.58
2023-03-02T09:07:41.079Z,2.58
2023-03-02T09:10:12.304Z,2.63
2023-03-02T09:12:41.010Z,2.72
2023-03-02T09:15:10.315Z,2.77
2023-03-02T09:17:39.117Z,2.79
2023-03-02T09:20:09.822Z,2.86
2023-03-02T09:22:38.247Z,2.95
2023-03-02T09:25:08.169Z,3.10
2023-03-02T09:27:38.005Z,3.26
2023-03-02T09:30:08.047Z,3.31
2023-03-02T09:32:37.307Z,3.38
2023-03-02T09:35:06.712Z,3.43
2023-03-02T09:37:37.410Z,3.34
2023-03-02T09:40:17.440Z,3.16
2023-03-02T09:43:38.517Z,3.56
2023-03-02T09:46:19.338Z,3.82
2023-03-02T09:49:04.898Z,3.67
2023-03-02T09:51:40.835Z,3.94
2023-03-02T09:54:15.071Z,3.96
2023-03-02T09:56:48.255Z,4.04
2023-03-02T09:59:27.491Z,4.18
2023-03-02T10:02:06.288Z,4.25
2023-03-02T10:04:44.598Z,4.17
2023-03-02T10:07:16.464Z,3.89
2023-03-02T10:09:45.346Z,4.51
2023-03-02T10:12:47.460Z,4.54
2023-03-02T10:15:27.166Z,4.64
2023-03-02T10:18:11.084Z,4.74
2023-03-02T10:20:50.402Z,4.82
2023-03-02T10:23:37.551Z,4.85
2023-03-02T10:26:31.047Z,4.92
2023-03-02T10:29:18.614Z,4.92
2023-03-02T10:31:55.724Z,4.80
2023-03-02T10:34:29.271Z,4.46
2023-03-02T10:36:58.826Z,5.07
2023-03-02T10:39:27.230Z,5.13
2023-03-02T10:42:03.469Z,5.15
2023-03-02T10:44:37.601Z,4.82
2023-03-02T10:47:08.626Z,5.28
2023-03-02T10:49:42.627Z,5.47
2023-03-02T10:52:16.276Z,5.47
2023-03-02T10:54:45.052Z,5.48
2023-03-02T10:57:35.531Z,5.54
2023-03-02T11:00:15.584Z,5.20
2023-03-02T11:02:55.737Z,5.57
2023-03-02T11:05:31.569Z,5.61
2023-03-02T11:08:03.329Z,5.71
2023-03-02T11:10:36.718Z,5.79
2023-03-02T11:13:19.254Z,5.88
2023-03-02T11:15:50.549Z,5.94
2023-03-02T11:18:28.318Z,6.04
2023-03-02T11:21:02.637Z,5.99
2023-03-02T11:23:53.778Z,5.74
2023-03-02T11:26:26.903Z,5.92
2023-03-02T11:29:03.568Z,6.03
2023-03-02T11:31:42.645Z,6.23
2023-03-02T11:34:33.868Z,6.32
2023-03-02T11:37:16.954Z,6.14
2023-03-02T11:40:05.157Z,6.29
2023-03-02T11:42:37.191Z,6.38
2023-03-02T11:45:20.800Z,6.42
2023-03-02T11:48:02.459Z,6.25
2023-03-02T11:50:38.242Z,6.62
2023-03-02T11:53:13.306Z,6.41
2023-03-02T11:55:48.461Z,6.44
2023-03-02T11:58:21.959Z,6.28
2023-03-02T12:00:51.800Z,6.58
2023-03-02T12:03:38.942Z,6.60
2023-03-02T12:06:28.096Z,6.66
2023-03-02T12:09:13.069Z,6.77
2023-03-02T12:11:46.348Z,6.82
2023-03-02T12:14:38.734Z,6.64
2023-03-02T12:17:31.227Z,6.90
2023-03-02T12:20:26.685Z,6.78
2023-03-02T12:23:10.933Z,7.00
2023-03-02T12:25:51.252Z,6.88
2023-03-02T12:28:37.240Z,6.96
2023-03-02T12:31:12.221Z,6.93
2023-03-02T12:33:47.755Z,6.88
2023-03-02T12:36:26.853Z,6.87
2023-03-02T12:39:23.265Z,7.08
2023-03-02T12:42:21.572Z,7.01
2023-03-02T12:45:04.310Z,6.93
2023-03-02T12:47:34.456Z,7.18
2023-03-02T12:50:08.502Z,7.20
2023-03-02T12:52:38.136Z,7.28
2023-03-02T12:55:19.931Z,7.26
2023-03-02T12:57:51.194Z,7.12
2023-03-02T13:00:24.838Z,6.23
2023-03-02T13:02:57.007Z,7.35
2023-03-02T13:05:28.442Z,7.50
2023-03-02T13:08:01.618Z,7.40
2023-03-02T13:10:37.717Z,7.31
2023-03-02T13:13:18.940Z,7.33
2023-03-02T13:15:53.011Z,7.47
2023-03-02T13:18:23.252Z,7.44
2023-03-02T13:20:53.419Z,7.43
2023-03-02T13:23:22.519Z,7.50
2023-03-02T13:25:55.854Z,7.33
2023-03-02T13:28:29.648Z,7.22
2023-03-02T13:31:00.811Z,7.48
2023-03-02T13:33:32.120Z,7.50
2023-03-02T13:36:01.436Z,7.55
2023-03-02T13:38:36.956Z,7.40
2023-03-02T13:41:09.388Z,7.58
2023-03-02T13:43:40.260Z,7.30
2023-03-02T13:46:29.610Z,7.33
2023-03-02T13:49:09.862Z,7.54
2023-03-02T13:51:43.692Z,7.58
2023-03-02T13:54:22.308Z,7.51
2023-03-02T13:56:54.395Z,6.83
2023-03-02T13:59:23.951Z,7.63
2023-03-02T14:01:52.807Z,7.19
2023-03-02T14:04:24.227Z,7.64
2023-03-02T14:06:54.239Z,7.63
2023-03-02T14:09:23.128Z,7.71
2023-03-02T14:11:57.044Z,7.70
2023-03-02T14:14:29.041Z,7.62
2023-03-02T14:16:58.320Z,7.58
2023-03-02T14:19:27.092Z,7.70
2023-03-02T14:21:55.876Z,7.79
2023-03-02T14:24:24.564Z,7.73
2023-03-02T14:26:54.704Z,7.67
2023-03-02T14:29:27.119Z,7.70
2023-03-02T14:31:57.308Z,7.53
2023-03-02T14:34:26.133Z,7.82
2023-03-02T14:36:58.341Z,7.66
2023-03-02T14:39:35.297Z,7.79
2023-03-02T14:42:06.803Z,7.74
2023-03-02T14:44:35.561Z,7.46
2023-03-02T14:47:07.275Z,7.78
2023-03-02T14:49:36.100Z,7.72
2023-03-02T14:52:14.227Z,7.50
2023-03-02T14:54:51.306Z,7.72
2023-03-02T14:57:25.257Z,7.61
2023-03-02T14:59:54.857Z,7.60
2023-03-02T15:02:27.003Z,7.55
2023-03-02T15:04:57.683Z,7.57
2023-03-02T15:07:28.530Z,7.50
2023-03-02T15:09:58.734Z,7.30
2023-03-02T15:12:29.010Z,7.56
2023-03-02T15:14:59.406Z,7.64
2023-03-02T15:17:31.045Z,7.63
2023-03-02T15:19:59.841Z,7.63
2023-03-02T15:22:28.811Z,7.57
2023-03-02T15:24:57.603Z,7.47
2023-03-02T15:27:29.666Z,7.48
2023-03-02T15:29:58.474Z,7.47
2023-03-02T15:32:27.293Z,7.42
2023-03-02T15:34:56.192Z,7.47
2023-03-02T15:37:24.632Z,7.05
2023-03-02T15:39:55.812Z,7.35
2023-03-02T15:42:25.270Z,7.31
2023-03-02T15:44:55.911Z,7.28
2023-03-02T15:47:25.337Z,7.23
2023-03-02T15:49:54.417Z,7.19
2023-03-02T15:52:23.612Z,7.11
2023-03-02T15:54:52.864Z,7.08
2023-03-02T15:57:22.114Z,6.54
2023-03-02T15:59:52.360Z,6.98
2023-03-02T16:02:22.568Z,6.97
2023-03-02T16:04:51.764Z,6.91
2023-03-02T16:07:22.470Z,6.86
2023-03-02T16:09:52.742Z,6.61
2023-03-02T16:12:23.590Z,6.47
2023-03-02T16:14:52.647Z,6.19
2023-03-02T16:17:23.737Z,6.06
2023-03-02T16:19:54.095Z,5.83
2023-03-02T16:22:23.107Z,5.61
2023-03-02T16:24:52.102Z,5.50
2023-03-02T16:27:20.900Z,5.49
2023-03-02T16:29:49.628Z,5.36
2023-03-02T16:32:18.455Z,5.40
2023-03-02T16:34:48.383Z,5.06
2023-03-02T16:37:17.157Z,4.96
2023-03-02T16:39:45.974Z,4.74
2023-03-02T16:42:14.674Z,4.68
2023-03-02T16:44:44.589Z,4.73
2023-03-02T16:47:14.013Z,4.70
2023-03-02T16:49:43.118Z,4.58
2023-03-02T16:52:13.314Z,4.46
2023-03-02T16:54:42.190Z,4.37
2023-03-02T16:57:12.287Z,4.25
2023-03-02T16:59:41.470Z,4.14
2023-03-02T17:02:12.435Z,4.03
2023-03-02T17:04:41.375Z,3.93
2023-03-02T17:07:10.218Z,3.85
2023-03-02T17:09:42.147Z,3.76
2023-03-02T17:12:11.006Z,3.65
2023-03-02T17:14:39.743Z,3.55
2023-03-02T17:17:09.220Z,3.43
2023-03-02T17:19:38.020Z,3.35
2023-03-02T17:22:07.725Z,3.24
2023-03-02T17:24:36.836Z,3.16
2023-03-02T17:27:19.090Z,3.08
2023-03-02T17:29:55.559Z,2.95
2023-03-02T17:32:25.664Z,2.81
2023-03-02T17:34:54.522Z,2.72
2023-03-02T17:37:25.757Z,2.63
2023-03-02T17:39:54.737Z,2.57
2023-03-02T17:42:24.827Z,2.48
2023-03-02T17:44:53.626Z,2.42
2023-03-02T17:47:22.985Z,2.33
2023-03-02T17:49:51.816Z,2.22
2023-03-02T17:52:20.682Z,2.13
2023-03-02T17:54:49.538Z,2.06
2023-03-02T17:57:22.492Z,1.94
2023-03-02T17:59:52.974Z,1.85
2023-03-02T18:02:21.804Z,1.74
2023-03-02T18:04:50.585Z,1.70
2023-03-02T18:07:19.476Z,1.65
2023-03-02T18:09:48.235Z,1.60
2023-03-02T18:12:16.953Z,1.50
2023-03-02T18:14:48.293Z,1.44
2023-03-02T18:17:20.705Z,1.40
2023-03-02T18:19:49.740Z,1.33
2023-03-02T18:22:18.549Z,1.20
2023-03-02T18:24:47.672Z,1.14
2023-03-02T18:27:16.585Z,1.06
2023-03-02T18:29:45.361Z,0.99
2023-03-02T18:32:14.588Z,0.92
2023-03-02T18:34:44.895Z,0.84
2023-03-02T18:37:15.783Z,0.78
2023-03-02T18:39:46.967Z,0.74
2023-03-02T18:42:18.341Z,0.71
2023-03-02T18:44:49.066Z,0.62
2023-03-02T18:47:19.057Z,0.23
2023-03-02T18:49:52.284Z,0.53
2023-03-02T18:52:21.525Z,0.57
2023-03-02T18:54:50.453Z,0.63
2023-03-02T18:57:19.459Z,0.70
2023-03-02T18:59:48.238Z,0.73
2023-03-02T19:02:17.408Z,0.77
2023-03-02T19:04:50.755Z,0.81
2023-03-02T19:07:19.598Z,0.81
2023-03-02T19:09:48.362Z,0.77
2023-03-02T19:12:18.539Z,0.63
2023-03-02T19:14:47.534Z,0.56
2023-03-02T19:17:16.528Z,0.53
2023-03-02T19:19:48.678Z,0.49
2023-03-02T19:22:18.838Z,0.38
2023-03-02T19:24:47.778Z,0.32
2023-03-02T19:27:16.777Z,0.28
2023-03-02T19:29:47.522Z,0.30
2023-03-02T19:32:16.340Z,0.23
2023-03-02T19:34:47.427Z,0.21
2023-03-02T19:37:17.784Z,0.08
2023-03-02T19:39:46.730Z,0.17
2023-03-02T19:42:15.508Z,0.29
2023-03-02T19:44:44.511Z,0.28
2023-03-02T19:47:16.607Z,0.40
2023-03-02T19:49:45.486Z,0.39
2023-03-02T19:52:14.219Z,0.29
2023-03-02T19:54:44.638Z,0.27
2023-03-02T19:57:13.410Z,0.25
2023-03-02T19:59:42.153Z,0.27
2023-03-02T20:02:11.392Z,0.24
2023-03-02T20:04:40.172Z,0.32
2023-03-02T20:07:09.059Z,0.41
2023-03-02T20:09:37.820Z,0.33
2023-03-02T20:12:08.188Z,0.06
2023-03-02T20:14:38.590Z,0.36
2023-03-02T20:17:07.341Z,0.33
2023-03-02T20:19:36.128Z,0.37
2023-03-02T20:22:06.966Z,0.32
2023-03-02T20:24:35.688Z,0.32
2023-03-02T20:27:06.864Z,0.34
2023-03-02T20:29:38.079Z,0.40
2023-03-02T20:32:10.372Z,-0.91
2023-03-02T20:34:41.390Z,0.28
2023-03-02T20:37:12.632Z,-0.49
2023-03-02T20:39:47.901Z,-1.24
2023-03-02T20:42:16.921Z,0.32
2023-03-02T20:44:47.771Z,0.22
2023-03-02T20:47:19.962Z,0.00
2023-03-02T20:49:53.802Z,0.17
2023-03-02T20:52:22.950Z,0.12
2023-03-02T20:54:52.157Z,0.19
2023-03-02T20:57:23.001Z,-0.02
2023-03-02T20:59:54.333Z,0.19
2023-03-02T21:02:23.118Z,0.25
2023-03-02T21:04:52.021Z,0.24
2023-03-02T21:07:20.825Z,0.31
2023-03-02T21:09:49.662Z,0.44
2023-03-02T21:12:18.491Z,0.40
2023-03-02T21:14:47.512Z,0.38
2023-03-02T21:17:17.843Z,-0.22
2023-03-02T21:19:46.643Z,0.13
2023-03-02T21:22:15.364Z,0.12
2023-03-02T21:24:44.126Z,0.05
2023-03-02T21:27:13.014Z,0.17
2023-03-02T21:29:42.130Z,0.21
2023-03-02T21:32:10.956Z,0.13
2023-03-02T21:34:41.136Z,0.21
2023-03-02T21:37:09.934Z,0.25
2023-03-02T21:39:39.167Z,0.23
2023-03-02T21:42:08.050Z,0.24
2023-03-02T21:44:36.768Z,0.20
2023-03-02T21:47:05.890Z,0.16
2023-03-02T21:49:34.703Z,-0.09
2023-03-02T21:52:04.957Z,-0.12
2023-03-02T21:54:33.756Z,-0.10
2023-03-02T21:57:02.561Z,-0.05
2023-03-02T21:59:33.766Z,-0.13
2023-03-02T22:02:02.541Z,-0.09
2023-03-02T22:04:31.547Z,0.14
2023-03-02T22:07:00.267Z,0.24
2023-03-02T22:09:30.156Z,-0.29
2023-03-02T22:11:59.043Z,0.32
2023-03-02T22:14:28.240Z,0.26
2023-03-02T22:16:56.948Z,0.07
2023-03-02T22:19:28.898Z,0.03
2023-03-02T22:22:00.103Z,0.01
2023-03-02T22:24:32.126Z,-0.07
2023-03-02T22:27:09.009Z,-0.17
2023-03-02T22:29:46.641Z,-0.30
2023-03-02T22:32:19.832Z,-0.15
2023-03-02T22:34:51.525Z,-0.57
2023-03-02T22:37:22.642Z,-0.06
2023-03-02T22:39:57.732Z,-0.07
2023-03-02T22:42:30.579Z,-0.34
2023-03-02T22:45:12.983Z,-0.38
2023-03-02T22:47:42.145Z,-0.22
2023-03-02T22:50:23.979Z,-0.22
2023-03-02T22:52:53.497Z,-0.32
2023-03-02T22:55:38.248Z,-0.47
2023-03-02T22:58:46.674Z,-0.43
2023-03-02T23:01:24.113Z,-0.94
2023-03-02T23:03:55.419Z,-1.03
2023-03-02T23:06:31.263Z,-0.92
2023-03-02T23:09:02.607Z,-0.61
2023-03-02T23:11:38.747Z,-0.53
2023-03-02T23:14:25.057Z,-0.48
2023-03-02T23:16:59.220Z,-0.96
2023-03-02T23:19:29.471Z,-0.78
2023-03-02T23:21:59.067Z,-0.44
2023-03-02T23:24:27.941Z,-0.51
2023-03-02T23:26:58.134Z,-0.52
2023-03-02T23:29:26.865Z,-0.62
2023-03-02T23:31:55.929Z,-0.72
2023-03-02T23:34:24.964Z,-0.64
2023-03-02T23:36:53.691Z,-0.71
2023-03-02T23:39:22.427Z,-0.86
2023-03-02T23:41:51.466Z,-0.83
2023-03-02T23:44:21.489Z,-0.69
2023-03-02T23:46:50.719Z,-0.60
2023-03-02T23:49:19.622Z,-0.67
2023-03-02T23:51:48.748Z,-0.76
2023-03-02T23:54:17.506Z,-0.72
2023-03-02T23:56:46.249Z,-0.64
2023-03-02T23:59:15.113Z,-0.64
